Weather History for Boundary Cnty AP, Bonners Fer, ID

Change the Weather History Date:

Thursday, August 29, 2013

  Actual Average (KSZT) Record (KSZT)
Temperature  
Mean Temperature 64 °F -  
Max Temperature 75 °F 77 °F 96 °F (1915)
Min Temperature 53 °F 44 °F 30 °F (1925)
Degree Days  
Heating Degree Days 1    
Growing Degree Days 14 (Base 50)    
Moisture  
Dew Point 53 °F    
Average Humidity 68    
Maximum Humidity 88    
Minimum Humidity 41    
Precipitation  
Precipitation 0.02 in - - ()
Sea Level Pressure  
Sea Level Pressure 29.99 in    
Wind  
Wind Speed 2 mph (SSE)    
Max Wind Speed 8 mph    
Max Gust Speed -    
Visibility 10 miles    
Events Rain    
Averages and records for this station are not official NWS values.
T = Trace of Precipitation, MM = Missing Value Source: NWS Daily Summary

Daily Weather History Graph

Daily Weather History Graph

Search for Another Location

Airport:

Trip Planner

Search our weather history database for the weather conditions in past years. The results will help you decide how hot, cold, wet, or windy it might be!

Date:

Astronomy

Aug. 29, 2013 Rise Set
Actual Time 5:58 AM PDT 7:32 PM PDT
Civil Twilight 5:25 AM PDT 8:05 PM PDT
Nautical Twilight 4:45 AM PDT 8:45 PM PDT
Astronomical Twilight 4:01 AM PDT 9:29 PM PDT
Moon No Moon Rise 3:20 PM PDT (8/29)
Length of Visible Light 14h 40m
Length of Day
13h 34m
Last Quarter, 37% of the Moon is Illuminated
Aug 29
Last Quarter
Sep 5
New
Sep 12
First Quarter
Sep 19
Full
Sep 26
Last Quarter

Hourly Weather History & Observations

Time (PDT) Temp. Dew Point Humidity Pressure Visibility Wind Dir Wind Speed Gust Speed Precip Events Conditions
12:10 AM 57.2 °F 51.8 °F 82% 29.97 in 10.0 mi Calm Calm - N/A   Clear
12:30 AM 59.0 °F 51.8 °F 77% 29.97 in 10.0 mi Calm Calm - N/A   Clear
12:50 AM 57.2 °F 51.8 °F 82% 29.97 in 10.0 mi Calm Calm - N/A   Clear
1:15 AM 59.0 °F 51.8 °F 77% 29.97 in 10.0 mi Calm Calm - N/A   Clear
1:30 AM 59.0 °F 51.8 °F 77% 29.97 in 10.0 mi Calm Calm - N/A   Clear
1:50 AM 57.2 °F 50.0 °F 77% 29.97 in 10.0 mi NE 3.5 mph - N/A   Clear
2:10 AM 55.4 °F 50.0 °F 82% 29.98 in 10.0 mi Calm Calm - N/A   Clear
2:30 AM 55.4 °F 50.0 °F 82% 29.98 in 10.0 mi Calm Calm - N/A   Clear
2:50 AM 55.4 °F 50.0 °F 82% 29.98 in 10.0 mi Calm Calm - N/A   Clear
3:10 AM 55.4 °F 50.0 °F 82% 29.98 in 10.0 mi Calm Calm - N/A   Clear
3:30 AM 57.2 °F 50.0 °F 77% 29.98 in 10.0 mi Calm Calm - N/A   Clear
3:50 AM 53.6 °F 50.0 °F 88% 29.98 in 10.0 mi South 3.5 mph - N/A   Clear
4:10 AM 53.6 °F 50.0 °F 88% 29.98 in 10.0 mi Calm Calm - N/A   Clear
4:30 AM 53.6 °F 50.0 °F 88% 29.98 in 10.0 mi Calm Calm - N/A   Clear
4:50 AM 55.4 °F 50.0 °F 82% 29.98 in 10.0 mi Calm Calm - N/A   Clear
5:10 AM 53.6 °F 48.2 °F 82% 29.98 in 10.0 mi Calm Calm - N/A   Clear
5:30 AM 53.6 °F 48.2 °F 82% 29.98 in 10.0 mi NNE 3.5 mph - N/A   Clear
5:50 AM 53.6 °F 48.2 °F 82% 29.98 in 10.0 mi Calm Calm - N/A   Clear
6:10 AM 53.6 °F 48.2 °F 82% 29.98 in 10.0 mi Calm Calm - N/A   Clear
6:30 AM 53.6 °F 48.2 °F 82% 29.98 in 10.0 mi Calm Calm - N/A   Clear
6:50 AM 55.4 °F 50.0 °F 82% 29.98 in 10.0 mi Calm Calm - N/A   Clear
7:10 AM 57.2 °F 51.8 °F 82% 29.98 in 10.0 mi Calm Calm - N/A   Clear
7:30 AM 59.0 °F 53.6 °F 82% 29.99 in 10.0 mi Calm Calm - N/A   Clear
7:50 AM 59.0 °F 53.6 °F 82% 29.99 in 10.0 mi Calm Calm - N/A   Clear
8:10 AM 62.6 °F 50.0 °F 63% 29.99 in 10.0 mi Calm Calm - N/A   Clear
8:30 AM 60.8 °F 53.6 °F 77% 29.99 in 10.0 mi Calm Calm - N/A   Clear
8:50 AM 62.6 °F 51.8 °F 68% 29.99 in 10.0 mi Calm Calm - N/A   Clear
9:10 AM 64.4 °F 51.8 °F 64% 29.99 in 10.0 mi SW 3.5 mph - N/A   Clear
9:30 AM 64.4 °F 51.8 °F 64% 29.99 in 10.0 mi Calm Calm - N/A   Clear
9:55 AM 66.2 °F 51.8 °F 60% 29.98 in 10.0 mi Calm Calm - N/A   Clear
10:10 AM 66.2 °F 51.8 °F 60% 29.98 in 10.0 mi Calm Calm - N/A   Clear
10:30 AM 68.0 °F 51.8 °F 56% 29.97 in 10.0 mi Calm Calm - N/A   Clear
10:50 AM 68.0 °F 53.6 °F 60% 29.97 in 10.0 mi Calm Calm - N/A   Clear
11:10 AM 69.8 °F 51.8 °F 53% 29.95 in 10.0 mi Calm Calm - N/A   Clear
11:30 AM 73.4 °F 51.8 °F 47% 29.95 in 10.0 mi East 3.5 mph - N/A   Clear
11:50 AM 73.4 °F 51.8 °F 47% 29.95 in 10.0 mi South 4.6 mph - N/A   Clear
12:10 PM 71.6 °F 55.4 °F 57% 29.94 in 10.0 mi South 3.5 mph - N/A   Clear
12:30 PM 69.8 °F 53.6 °F 56% 29.98 in 10.0 mi SSW 6.9 mph - N/A   Scattered Clouds
12:50 PM 66.2 °F 55.4 °F 68% 30.00 in 8.0 mi SSW 6.9 mph - N/A Rain Light Rain
1:10 PM 64.4 °F 57.2 °F 77% 29.97 in 5.0 mi NW 4.6 mph - 0.01 in Rain Light Rain
1:30 PM 64.4 °F 59.0 °F 83% 29.96 in 10.0 mi ENE 6.9 mph - 0.02 in Rain Light Rain
1:50 PM 64.4 °F 57.2 °F 77% 29.97 in 10.0 mi SW 5.8 mph - 0.02 in   Partly Cloudy
2:10 PM 64.4 °F 57.2 °F 77% 29.97 in 10.0 mi SSE 5.8 mph - N/A   Clear
2:30 PM 64.4 °F 57.2 °F 77% 30.00 in 10.0 mi South 3.5 mph - N/A   Partly Cloudy
2:50 PM 66.2 °F 57.2 °F 73% 29.99 in 10.0 mi ESE 5.8 mph - N/A Rain Light Rain
3:15 PM 68.0 °F 57.2 °F 68% 30.00 in 10.0 mi Calm Calm - N/A   Clear
3:35 PM 73.4 °F 57.2 °F 57% 29.99 in 10.0 mi Calm Calm - N/A   Clear
3:55 PM 73.4 °F 55.4 °F 53% 29.98 in 10.0 mi Calm Calm - N/A   Clear
4:15 PM 71.6 °F 57.2 °F 60% 29.98 in 10.0 mi ENE 6.9 mph - N/A   Clear
4:35 PM 73.4 °F 55.4 °F 53% 29.99 in 10.0 mi WSW 6.9 mph - N/A   Clear
4:55 PM 75.2 °F 55.4 °F 50% 29.98 in 10.0 mi SSW 4.6 mph - N/A   Clear
5:15 PM 75.2 °F 55.4 °F 50% 29.97 in 10.0 mi South 4.6 mph - N/A   Clear
5:35 PM 75.2 °F 51.8 °F 44% 29.98 in 10.0 mi SSE 4.6 mph - N/A   Clear
5:50 PM 75.2 °F 53.6 °F 47% 29.99 in 10.0 mi SSW 4.6 mph - N/A   Clear
6:15 PM 75.2 °F 53.6 °F 47% 29.99 in 10.0 mi SSW 5.8 mph - N/A   Clear
6:35 PM 75.2 °F 50.0 °F 41% 29.99 in 10.0 mi SSW 6.9 mph - N/A   Clear
6:55 PM 73.4 °F 50.0 °F 44% 29.99 in 10.0 mi SSW 5.8 mph - N/A   Clear
7:15 PM 73.4 °F 53.6 °F 50% 29.99 in 10.0 mi Calm Calm - N/A   Clear
7:35 PM 71.6 °F 53.6 °F 53% 29.99 in 10.0 mi Calm Calm - N/A   Clear
7:55 PM 69.8 °F 53.6 °F 56% 30.00 in 10.0 mi Calm Calm - N/A   Clear
8:15 PM 68.0 °F 53.6 °F 60% 30.01 in 10.0 mi Calm Calm - N/A   Clear
8:35 PM 69.8 °F 53.6 °F 56% 30.01 in 10.0 mi SSE 3.5 mph - N/A   Clear
8:55 PM 66.2 °F 53.6 °F 64% 30.01 in 10.0 mi Calm Calm - N/A   Clear
9:15 PM 66.2 °F 55.4 °F 68% 30.02 in 10.0 mi SE 3.5 mph - N/A   Clear
9:35 PM 66.2 °F 53.6 °F 64% 30.01 in 10.0 mi East 3.5 mph - N/A   Clear
9:55 PM 66.2 °F 53.6 °F 64% 30.01 in 10.0 mi East 6.9 mph - N/A   Clear
10:15 PM 66.2 °F 53.6 °F 64% 30.01 in 10.0 mi East 3.5 mph - N/A   Scattered Clouds
10:35 PM 66.2 °F 53.6 °F 64% 30.01 in 10.0 mi ENE 8.1 mph - N/A   Partly Cloudy
10:55 PM 62.6 °F 53.6 °F 72% 30.01 in 10.0 mi SSE 3.5 mph - N/A   Clear
11:15 PM 62.6 °F 53.6 °F 72% 30.02 in 10.0 mi SSE 4.6 mph - N/A   Clear
11:35 PM 62.6 °F 53.6 °F 72% 30.03 in 10.0 mi ESE 5.8 mph - N/A   Clear
11:55 PM 62.6 °F 53.6 °F 72% 30.03 in 10.0 mi SE 3.5 mph - N/A   Clear